createdAt,value
2023-03-30T00:02:22.086Z,100469.56
2023-03-30T00:05:02.145Z,100460.19
2023-03-30T00:07:30.250Z,100460.03
2023-03-30T00:10:02.927Z,100458.50
2023-03-30T00:12:33.170Z,100459.34
2023-03-30T00:15:00.981Z,100469.75
2023-03-30T00:17:33.787Z,100457.66
2023-03-30T00:20:06.376Z,100460.03
2023-03-30T00:22:40.162Z,100465.66
2023-03-30T00:25:15.511Z,100461.75
2023-03-30T00:27:48.336Z,100466.53
2023-03-30T00:30:18.744Z,100477.78
2023-03-30T00:32:48.336Z,100484.94
2023-03-30T00:35:16.188Z,100482.53
2023-03-30T00:37:45.768Z,100476.75
2023-03-30T00:40:19.106Z,100482.22
2023-03-30T00:42:48.487Z,100456.16
2023-03-30T00:45:30.316Z,100446.25
2023-03-30T00:48:12.636Z,100449.31
2023-03-30T00:50:43.951Z,100438.56
2023-03-30T00:53:17.340Z,100443.50
2023-03-30T00:55:47.390Z,100428.19
2023-03-30T00:58:17.017Z,100429.53
2023-03-30T01:00:47.328Z,100442.47
2023-03-30T01:03:21.308Z,100442.81
2023-03-30T01:05:50.443Z,100436.69
2023-03-30T01:08:20.081Z,100424.38
2023-03-30T01:10:48.156Z,100439.06
2023-03-30T01:13:16.763Z,100441.09
2023-03-30T01:15:55.923Z,100442.47
2023-03-30T01:18:37.681Z,100444.66
2023-03-30T01:21:37.741Z,100447.69
2023-03-30T01:24:35.709Z,100450.44
2023-03-30T01:27:19.936Z,100448.72
2023-03-30T01:30:03.315Z,100437.81
2023-03-30T01:32:57.192Z,100417.38
2023-03-30T01:36:00.083Z,100418.41
2023-03-30T01:41:33.442Z,100395.59
2023-03-30T01:44:06.506Z,100402.56
2023-03-30T01:46:40.420Z,100396.28
2023-03-30T01:49:16.310Z,100390.16
2023-03-30T01:51:50.836Z,100382.66
2023-03-30T01:54:22.166Z,100378.41
2023-03-30T01:56:56.136Z,100377.53
2023-03-30T01:59:28.217Z,100392.16
2023-03-30T02:02:00.569Z,100396.97
2023-03-30T02:04:31.938Z,100403.41
2023-03-30T02:07:04.105Z,100410.19
2023-03-30T02:09:33.828Z,100405.94
2023-03-30T02:12:04.919Z,100416.84
2023-03-30T02:14:35.257Z,100416.84
2023-03-30T02:17:07.481Z,100420.03
2023-03-30T02:19:37.900Z,100419.19
2023-03-30T02:22:06.287Z,100421.75
2023-03-30T02:24:35.347Z,100415.47
2023-03-30T02:27:05.264Z,100401.69
2023-03-30T02:29:36.511Z,100416.00
2023-03-30T02:32:05.277Z,100416.00
2023-03-30T02:34:47.085Z,100416.84
2023-03-30T02:37:30.159Z,100408.34
2023-03-30T02:40:13.409Z,100410.06
2023-03-30T02:43:03.389Z,100410.91
2023-03-30T02:45:42.914Z,100396.25
2023-03-30T02:48:30.830Z,100406.13
2023-03-30T02:51:12.725Z,100387.06
2023-03-30T02:53:45.452Z,100376.84
2023-03-30T02:56:19.343Z,100358.97
2023-03-30T02:58:50.726Z,100361.69
2023-03-30T03:01:26.881Z,100369.53
2023-03-30T03:03:59.137Z,100373.47
2023-03-30T03:06:28.590Z,100378.91
2023-03-30T03:08:57.552Z,100393.38
2023-03-30T03:11:25.849Z,100391.50
2023-03-30T03:13:55.667Z,100375.81
2023-03-30T03:16:23.811Z,100382.28
2023-03-30T03:18:52.567Z,100386.06
2023-03-30T03:21:20.408Z,100376.31
2023-03-30T03:23:48.679Z,100380.09
2023-03-30T03:26:16.431Z,100366.78
2023-03-30T03:28:44.885Z,100371.22
2023-03-30T03:31:14.229Z,100365.97
2023-03-30T03:33:42.043Z,100357.59
2023-03-30T03:36:12.146Z,100365.78
2023-03-30T03:38:40.236Z,100367.13
2023-03-30T03:41:08.305Z,100361.03
2023-03-30T03:43:36.708Z,100341.25
2023-03-30T03:46:04.582Z,100359.97
2023-03-30T03:48:33.738Z,100363.91
2023-03-30T03:51:01.721Z,100361.00
2023-03-30T03:53:32.274Z,100362.56
2023-03-30T03:56:00.282Z,100357.09
2023-03-30T03:58:28.753Z,100361.53
2023-03-30T04:01:00.058Z,100353.38
2023-03-30T04:03:29.018Z,100366.84
2023-03-30T04:06:02.181Z,100357.09
2023-03-30T04:08:30.512Z,100378.91
2023-03-30T04:11:06.088Z,100372.78
2023-03-30T04:13:33.970Z,100366.63
2023-03-30T04:16:01.863Z,100367.84
2023-03-30T04:18:31.577Z,100367.13
2023-03-30T04:21:03.118Z,100375.31
2023-03-30T04:23:33.846Z,100371.91
2023-03-30T04:26:02.658Z,100363.91
2023-03-30T04:28:31.774Z,100378.69
2023-03-30T04:31:00.581Z,100375.97
2023-03-30T04:33:28.327Z,100378.19
2023-03-30T04:35:56.152Z,100378.53
2023-03-30T04:38:25.408Z,100358.59
2023-03-30T04:40:53.752Z,100350.94
2023-03-30T04:43:22.981Z,100357.06
2023-03-30T04:45:51.884Z,100353.94
2023-03-30T04:48:20.639Z,100359.53
2023-03-30T04:50:50.363Z,100355.28
2023-03-30T04:53:19.503Z,100349.63
2023-03-30T04:55:51.720Z,100344.03
2023-03-30T04:58:19.808Z,100357.13
2023-03-30T05:00:47.617Z,100352.69
2023-03-30T05:03:15.572Z,100346.41
2023-03-30T05:05:43.414Z,100342.31
2023-03-30T05:08:11.216Z,100338.88
2023-03-30T05:10:39.022Z,100331.75
2023-03-30T05:13:08.162Z,100327.81
2023-03-30T05:15:35.939Z,100341.25
2023-03-30T05:18:03.695Z,100343.75
2023-03-30T05:20:31.611Z,100351.72
2023-03-30T05:22:59.387Z,100345.63
2023-03-30T05:25:27.219Z,100344.22
2023-03-30T05:27:54.943Z,100347.13
2023-03-30T05:30:24.046Z,100344.72
2023-03-30T05:32:51.873Z,100341.50
2023-03-30T05:35:19.803Z,100337.19
2023-03-30T05:37:49.661Z,100345.69
2023-03-30T05:40:18.266Z,100353.50
2023-03-30T05:42:46.064Z,100354.81
2023-03-30T05:45:14.030Z,100359.72
2023-03-30T05:47:43.222Z,100363.47
2023-03-30T05:50:11.926Z,100371.09
2023-03-30T05:52:39.687Z,100368.53
2023-03-30T05:55:07.934Z,100363.78
2023-03-30T05:57:35.769Z,100371.41
2023-03-30T06:00:06.729Z,100371.56
2023-03-30T06:02:34.970Z,100373.44
2023-03-30T06:05:04.589Z,100380.03
2023-03-30T06:07:32.747Z,100387.13
2023-03-30T06:10:01.566Z,100386.13
2023-03-30T06:12:29.397Z,100393.09
2023-03-30T06:14:57.451Z,100386.47
2023-03-30T06:17:26.035Z,100391.78
2023-03-30T06:19:54.408Z,100397.06
2023-03-30T06:22:23.588Z,100391.28
2023-03-30T06:24:51.475Z,100390.28
2023-03-30T06:27:19.256Z,100381.97
2023-03-30T06:29:47.110Z,100397.91
2023-03-30T06:32:14.866Z,100407.47
2023-03-30T06:34:42.658Z,100388.44
2023-03-30T06:37:10.433Z,100413.38
2023-03-30T06:39:39.701Z,100406.59
2023-03-30T06:42:07.596Z,100419.41
2023-03-30T06:44:35.343Z,100420.09
2023-03-30T06:47:03.433Z,100423.88
2023-03-30T06:49:31.402Z,100419.31
2023-03-30T06:52:01.502Z,100432.56
2023-03-30T06:54:31.006Z,100442.97
2023-03-30T06:57:00.259Z,100441.44
2023-03-30T06:59:28.258Z,100436.31
2023-03-30T07:02:00.871Z,100436.69
2023-03-30T07:04:29.119Z,100440.09
2023-03-30T07:06:57.905Z,100446.22
2023-03-30T07:09:28.738Z,100440.31
2023-03-30T07:11:56.755Z,100451.56
2023-03-30T07:14:25.990Z,100452.09
2023-03-30T07:16:54.191Z,100447.03
2023-03-30T07:19:21.951Z,100449.81
2023-03-30T07:21:49.694Z,100458.31
2023-03-30T07:24:17.606Z,100443.00
2023-03-30T07:26:45.576Z,100457.69
2023-03-30T07:29:15.419Z,100459.75
2023-03-30T07:31:44.890Z,100451.09
2023-03-30T07:34:12.754Z,100466.97
2023-03-30T07:36:40.479Z,100463.56
2023-03-30T07:39:08.825Z,100464.88
2023-03-30T07:41:36.575Z,100473.44
2023-03-30T07:44:04.368Z,100466.13
2023-03-30T07:46:32.248Z,100471.91
2023-03-30T07:49:01.611Z,100473.63
2023-03-30T07:51:29.479Z,100478.06
2023-03-30T07:53:58.504Z,100487.09
2023-03-30T07:56:26.310Z,100484.88
2023-03-30T07:58:54.176Z,100486.72
2023-03-30T08:01:22.151Z,100493.69
2023-03-30T08:03:50.010Z,100493.88
2023-03-30T08:06:19.237Z,100495.06
2023-03-30T08:08:47.872Z,100494.75
2023-03-30T08:11:16.290Z,100493.88
2023-03-30T08:13:44.555Z,100500.28
2023-03-30T08:16:12.562Z,100501.28
2023-03-30T08:18:41.680Z,100501.13
2023-03-30T08:21:10.938Z,100509.63
2023-03-30T08:23:40.162Z,100514.72
2023-03-30T08:26:07.980Z,100510.09
2023-03-30T08:28:36.681Z,100518.94
2023-03-30T08:31:06.377Z,100516.44
2023-03-30T08:33:34.878Z,100513.63
2023-03-30T08:36:02.702Z,100513.50
2023-03-30T08:38:30.638Z,100518.84
2023-03-30T08:40:59.834Z,100517.53
2023-03-30T08:43:42.512Z,100520.06
2023-03-30T08:46:15.571Z,100528.47
2023-03-30T08:48:44.572Z,100534.56
2023-03-30T08:51:23.442Z,100535.75
2023-03-30T08:53:56.054Z,100536.81
2023-03-30T08:56:28.419Z,100525.06
2023-03-30T08:59:05.442Z,100525.47
2023-03-30T09:01:41.084Z,100526.16
2023-03-30T09:04:18.942Z,100525.00
2023-03-30T09:06:51.887Z,100536.44
2023-03-30T09:09:22.101Z,100528.28
2023-03-30T09:11:56.547Z,100536.09
2023-03-30T09:14:33.222Z,100550.28
2023-03-30T09:17:08.639Z,100549.75
2023-03-30T09:19:41.474Z,100550.97
2023-03-30T09:22:13.619Z,100536.81
2023-03-30T09:24:42.105Z,100553.22
2023-03-30T09:27:17.203Z,100548.44
2023-03-30T09:29:49.008Z,100570.78
2023-03-30T09:32:25.157Z,100561.91
2023-03-30T09:35:00.311Z,100559.34
2023-03-30T09:37:29.795Z,100574.19
2023-03-30T09:39:59.050Z,100575.22
2023-03-30T09:42:36.403Z,100564.78
2023-03-30T09:45:12.771Z,100575.19
2023-03-30T09:47:42.502Z,100573.84
2023-03-30T09:50:13.104Z,100573.34
2023-03-30T09:52:41.848Z,100585.28
2023-03-30T09:55:28.622Z,100566.88
2023-03-30T09:58:13.114Z,100588.69
2023-03-30T10:00:41.114Z,100585.94
2023-03-30T10:03:19.713Z,100582.84
2023-03-30T10:06:03.029Z,100591.03
2023-03-30T10:08:31.627Z,100590.88
2023-03-30T10:11:01.162Z,100589.31
2023-03-30T10:13:34.243Z,100589.50
2023-03-30T10:16:07.286Z,100598.16
2023-03-30T10:18:41.075Z,100606.72
2023-03-30T10:21:18.802Z,100604.88
2023-03-30T10:23:48.319Z,100588.50
2023-03-30T10:26:19.279Z,100596.53
2023-03-30T10:28:56.523Z,100598.91
2023-03-30T10:31:28.071Z,100596.50
2023-03-30T10:34:00.632Z,100572.81
2023-03-30T10:36:31.841Z,100601.63
2023-03-30T10:39:08.973Z,100592.91
2023-03-30T10:41:40.819Z,100590.16
2023-03-30T10:44:20.406Z,100580.78
2023-03-30T10:46:51.049Z,100604.38
2023-03-30T10:49:31.458Z,100595.31
2023-03-30T10:52:09.476Z,100599.59
2023-03-30T10:54:42.951Z,100610.84
2023-03-30T10:57:14.308Z,100600.44
2023-03-30T11:00:15.535Z,100606.91
2023-03-30T11:02:52.703Z,100605.19
2023-03-30T11:05:25.307Z,100618.34
2023-03-30T11:07:57.072Z,100612.38
2023-03-30T11:10:31.437Z,100614.94
2023-03-30T11:13:03.461Z,100611.31
2023-03-30T11:15:38.627Z,100626.16
2023-03-30T11:18:14.500Z,100630.94
2023-03-30T11:20:48.719Z,100621.34
2023-03-30T11:23:22.849Z,100629.56
2023-03-30T11:26:03.649Z,100622.03
2023-03-30T11:28:47.479Z,100624.44
2023-03-30T11:31:29.241Z,100624.59
2023-03-30T11:34:04.275Z,100628.50
2023-03-30T11:36:37.858Z,100633.97
2023-03-30T11:39:28.824Z,100639.13
2023-03-30T11:42:07.253Z,100634.88
2023-03-30T11:44:35.097Z,100627.50
2023-03-30T11:47:20.235Z,100641.88
2023-03-30T11:50:03.043Z,100654.56
2023-03-30T11:52:35.813Z,100648.59
2023-03-30T11:55:34.779Z,100649.13
2023-03-30T11:58:10.513Z,100640.75
2023-03-30T12:00:50.422Z,100652.84
2023-03-30T12:03:31.089Z,100636.97
2023-03-30T12:06:07.437Z,100652.81
2023-03-30T12:08:54.076Z,100650.22
2023-03-30T12:11:31.843Z,100660.13
2023-03-30T12:14:00.489Z,100652.59
2023-03-30T12:16:38.913Z,100661.81
2023-03-30T12:19:14.737Z,100652.63
2023-03-30T12:21:49.055Z,100656.03
2023-03-30T12:24:24.180Z,100647.63
2023-03-30T12:27:04.669Z,100659.94
2023-03-30T12:30:02.385Z,100653.44
2023-03-30T12:32:32.052Z,100657.03
2023-03-30T12:35:01.228Z,100651.28
2023-03-30T12:37:34.802Z,100652.16
2023-03-30T12:40:07.375Z,100647.38
2023-03-30T12:42:39.619Z,100645.53
2023-03-30T12:45:32.106Z,100638.03
2023-03-30T12:48:17.729Z,100634.09
2023-03-30T12:50:57.768Z,100642.28
2023-03-30T12:54:03.787Z,100624.69
2023-03-30T12:56:39.102Z,100626.56
2023-03-30T12:59:31.137Z,100632.16
2023-03-30T13:02:16.990Z,100634.88
2023-03-30T13:04:48.935Z,100630.75
2023-03-30T13:07:23.263Z,100638.75
2023-03-30T13:09:57.005Z,100628.44
2023-03-30T13:12:41.066Z,100617.59
2023-03-30T13:15:34.906Z,100612.75
2023-03-30T13:18:04.356Z,100633.72
2023-03-30T13:20:34.240Z,100622.56
2023-03-30T13:23:32.180Z,100617.97
2023-03-30T13:26:32.358Z,100623.53
2023-03-30T13:29:10.301Z,100619.84
2023-03-30T13:31:52.132Z,100621.25
2023-03-30T13:34:30.260Z,100625.69
2023-03-30T13:37:04.878Z,100627.56
2023-03-30T13:39:41.792Z,100627.88
2023-03-30T13:42:27.173Z,100618.94
2023-03-30T13:45:03.054Z,100616.84
2023-03-30T13:47:45.214Z,100613.66
2023-03-30T13:50:24.865Z,100617.31
2023-03-30T13:52:56.419Z,100596.78
2023-03-30T13:55:32.525Z,100603.56
2023-03-30T13:58:04.612Z,100599.72
2023-03-30T14:00:40.086Z,100600.28
2023-03-30T14:03:37.204Z,100606.53
2023-03-30T14:06:08.930Z,100620.69
2023-03-30T14:08:38.900Z,100609.22
2023-03-30T14:11:15.628Z,100602.75
2023-03-30T14:13:44.687Z,100595.28
2023-03-30T14:16:18.567Z,100602.47
2023-03-30T14:18:46.695Z,100596.66
2023-03-30T14:21:18.563Z,100594.25
2023-03-30T14:23:51.070Z,100602.47
2023-03-30T14:26:24.501Z,100611.06
2023-03-30T14:28:56.703Z,100609.34
2023-03-30T14:31:26.998Z,100600.03
2023-03-30T14:33:55.179Z,100595.28
2023-03-30T14:36:23.473Z,100612.44
2023-03-30T14:38:53.945Z,100599.13
2023-03-30T14:41:27.489Z,100618.41
2023-03-30T14:43:56.915Z,100584.03
2023-03-30T14:46:26.659Z,100590.19
2023-03-30T14:48:55.179Z,100611.41
2023-03-30T14:51:26.286Z,100608.91
2023-03-30T14:53:55.872Z,100618.53
2023-03-30T14:56:25.855Z,100614.13
2023-03-30T14:58:55.691Z,100603.38
2023-03-30T15:01:31.079Z,100615.75
2023-03-30T15:04:01.202Z,100602.91
2023-03-30T15:06:31.382Z,100617.25
2023-03-30T15:09:03.330Z,100595.72
2023-03-30T15:11:35.706Z,100598.03
2023-03-30T15:14:09.785Z,100606.22
2023-03-30T15:16:38.855Z,100603.84
2023-03-30T15:19:11.716Z,100598.19
2023-03-30T15:21:43.299Z,100604.22
2023-03-30T15:24:17.606Z,100602.19
2023-03-30T15:26:49.695Z,100603.00
2023-03-30T15:29:19.585Z,100624.69
2023-03-30T15:31:47.432Z,100618.78
2023-03-30T15:34:17.443Z,100596.03
2023-03-30T15:36:46.314Z,100597.44
2023-03-30T15:39:22.041Z,100592.16
2023-03-30T15:42:01.269Z,100590.28
2023-03-30T15:44:29.855Z,100589.94
2023-03-30T15:46:59.301Z,100596.44
2023-03-30T15:49:31.765Z,100598.16
2023-03-30T15:52:02.602Z,100589.09
2023-03-30T15:54:35.031Z,100590.78
2023-03-30T15:57:08.402Z,100586.72
2023-03-30T15:59:39.908Z,100576.50
2023-03-30T16:02:16.360Z,100577.38
2023-03-30T16:04:44.301Z,100585.91
2023-03-30T16:07:16.823Z,100591.72
2023-03-30T16:09:44.603Z,100589.31
2023-03-30T16:12:17.849Z,100578.56
2023-03-30T16:14:46.704Z,100588.28
2023-03-30T16:17:14.590Z,100579.03
2023-03-30T16:19:42.872Z,100571.03
2023-03-30T16:22:12.115Z,100573.09
2023-03-30T16:24:40.907Z,100575.16
2023-03-30T16:27:08.912Z,100574.31
2023-03-30T16:29:38.133Z,100580.44
2023-03-30T16:32:06.399Z,100569.19
2023-03-30T16:34:34.149Z,100572.22
2023-03-30T16:37:03.687Z,100570.56
2023-03-30T16:39:31.800Z,100560.69
2023-03-30T16:42:00.290Z,100573.34
2023-03-30T16:44:28.153Z,100576.41
2023-03-30T16:46:57.298Z,100571.13
2023-03-30T16:49:26.579Z,100568.03
2023-03-30T16:51:57.916Z,100569.75
2023-03-30T16:56:57.002Z,100570.75
2023-03-30T16:59:26.757Z,100583.25
2023-03-30T17:01:54.522Z,100567.53
2023-03-30T17:04:23.703Z,100575.19
2023-03-30T17:06:51.631Z,100576.59
2023-03-30T17:09:21.180Z,100577.44
2023-03-30T17:11:49.836Z,100584.59
2023-03-30T17:14:17.908Z,100572.47
2023-03-30T17:16:45.771Z,100573.88
2023-03-30T17:19:15.053Z,100582.56
2023-03-30T17:21:45.885Z,100580.66
2023-03-30T17:24:16.367Z,100585.25
2023-03-30T17:26:44.361Z,100583.88
2023-03-30T17:29:12.243Z,100587.94
2023-03-30T17:31:45.335Z,100587.94
2023-03-30T17:34:13.304Z,100579.78
2023-03-30T17:36:41.088Z,100585.72
2023-03-30T17:39:13.176Z,100588.09
2023-03-30T17:41:41.289Z,100579.19
2023-03-30T17:44:09.066Z,100582.44
2023-03-30T17:46:36.911Z,100594.34
2023-03-30T17:49:04.912Z,100586.88
2023-03-30T17:51:32.725Z,100592.63
2023-03-30T17:54:00.477Z,100584.44
2023-03-30T17:56:29.569Z,100592.09
2023-03-30T17:58:57.352Z,100590.22
2023-03-30T18:01:25.150Z,100596.72
2023-03-30T18:03:53.090Z,100592.78
2023-03-30T18:06:20.850Z,100591.75
2023-03-30T18:08:48.646Z,100582.03
2023-03-30T18:11:16.394Z,100590.88
2023-03-30T18:13:45.517Z,100581.47
2023-03-30T18:16:13.877Z,100592.72
2023-03-30T18:18:41.684Z,100589.66
2023-03-30T18:21:11.047Z,100584.91
2023-03-30T18:23:38.877Z,100579.59
2023-03-30T18:26:11.262Z,100581.81
2023-03-30T18:28:43.463Z,100578.56
2023-03-30T18:31:13.427Z,100583.63
2023-03-30T18:33:41.250Z,100582.63
2023-03-30T18:36:12.960Z,100584.31
2023-03-30T18:38:41.483Z,100581.78
2023-03-30T18:41:11.470Z,100587.00
2023-03-30T18:43:42.336Z,100582.56
2023-03-30T18:46:13.842Z,100581.91
2023-03-30T18:48:41.720Z,100587.50
2023-03-30T18:51:12.114Z,100564.66
2023-03-30T18:53:40.145Z,100579.28
2023-03-30T18:56:10.365Z,100576.03
2023-03-30T18:58:42.038Z,100581.66
2023-03-30T19:01:12.920Z,100579.25
2023-03-30T19:03:42.491Z,100576.69
2023-03-30T19:06:13.727Z,100575.16
2023-03-30T19:08:43.730Z,100579.03
2023-03-30T19:11:16.281Z,100565.44
2023-03-30T19:13:44.088Z,100577.63
2023-03-30T19:16:11.856Z,100570.47
2023-03-30T19:18:39.965Z,100572.53
2023-03-30T19:21:10.809Z,100572.84
2023-03-30T19:23:38.614Z,100571.28
2023-03-30T19:26:07.445Z,100565.31
2023-03-30T19:28:35.948Z,100581.66
2023-03-30T19:31:10.217Z,100572.59
2023-03-30T19:33:38.017Z,100572.91
2023-03-30T19:36:07.237Z,100569.53
2023-03-30T19:38:37.401Z,100575.28
2023-03-30T19:41:06.775Z,100571.69
2023-03-30T19:43:34.835Z,100571.84
2023-03-30T19:46:02.790Z,100572.34
2023-03-30T19:48:30.667Z,100568.91
2023-03-30T19:50:58.500Z,100561.94
2023-03-30T19:53:26.368Z,100562.22
2023-03-30T19:55:55.607Z,100560.69
2023-03-30T19:58:23.389Z,100561.84
2023-03-30T20:00:51.253Z,100561.16
2023-03-30T20:03:19.266Z,100559.59
2023-03-30T20:05:51.155Z,100555.16
2023-03-30T20:08:24.271Z,100551.91
2023-03-30T20:10:53.149Z,100550.53
2023-03-30T20:13:24.020Z,100544.25
2023-03-30T20:15:56.098Z,100546.97
2023-03-30T20:18:24.231Z,100546.25
2023-03-30T20:20:52.651Z,100538.41
2023-03-30T20:23:20.527Z,100539.28
2023-03-30T20:25:49.370Z,100538.91
2023-03-30T20:28:17.404Z,100539.75
2023-03-30T20:30:47.629Z,100533.47
2023-03-30T20:33:15.570Z,100536.47
2023-03-30T20:35:43.552Z,100532.22
2023-03-30T20:38:11.351Z,100535.22
2023-03-30T20:40:39.130Z,100534.22
2023-03-30T20:43:10.732Z,100532.69
2023-03-30T20:45:46.128Z,100527.56
2023-03-30T20:48:25.934Z,100533.00
2023-03-30T20:50:54.269Z,100526.88
2023-03-30T20:53:22.951Z,100523.44
2023-03-30T20:55:51.122Z,100520.88
2023-03-30T20:58:18.854Z,100511.88
2023-03-30T21:00:47.444Z,100507.59
2023-03-30T21:03:16.785Z,100510.78
2023-03-30T21:05:44.742Z,100506.53
2023-03-30T21:08:12.502Z,100515.69
2023-03-30T21:10:43.009Z,100497.66
2023-03-30T21:13:11.011Z,100487.97
2023-03-30T21:15:38.756Z,100489.66
2023-03-30T21:18:06.727Z,100492.38
2023-03-30T21:20:35.916Z,100479.97
2023-03-30T21:23:03.747Z,100483.69
2023-03-30T21:25:32.113Z,100491.97
2023-03-30T21:27:59.860Z,100489.44
2023-03-30T21:30:28.940Z,100477.34
2023-03-30T21:32:56.747Z,100479.72
2023-03-30T21:35:24.974Z,100479.00
2023-03-30T21:37:54.029Z,100479.19
2023-03-30T21:40:22.337Z,100473.03
2023-03-30T21:42:50.111Z,100468.47
2023-03-30T21:45:18.262Z,100453.16
2023-03-30T21:47:46.070Z,100459.44
2023-03-30T21:50:13.830Z,100456.03
2023-03-30T21:52:41.530Z,100450.22
2023-03-30T21:55:10.827Z,100448.66
2023-03-30T21:57:38.591Z,100452.06
2023-03-30T22:00:10.183Z,100453.78
2023-03-30T22:02:38.297Z,100455.66
2023-03-30T22:05:06.935Z,100443.22
2023-03-30T22:07:34.646Z,100444.09
2023-03-30T22:10:02.412Z,100445.56
2023-03-30T22:12:31.637Z,100430.75
2023-03-30T22:14:59.359Z,100429.03
2023-03-30T22:17:34.989Z,100434.31
2023-03-30T22:20:02.870Z,100424.44
2023-03-30T22:22:30.624Z,100427.88
2023-03-30T22:24:58.318Z,100431.75
2023-03-30T22:27:26.395Z,100430.88
2023-03-30T22:29:55.501Z,100429.31
2023-03-30T22:32:23.471Z,100423.75
2023-03-30T22:34:51.307Z,100410.19
2023-03-30T22:37:19.145Z,100408.47
2023-03-30T22:39:46.955Z,100401.84
2023-03-30T22:42:14.792Z,100396.72
2023-03-30T22:44:42.738Z,100387.19
2023-03-30T22:47:11.908Z,100376.16
2023-03-30T22:49:40.154Z,100359.84
2023-03-30T22:52:08.027Z,100368.72
2023-03-30T22:54:35.787Z,100366.28
2023-03-30T22:57:03.585Z,100371.72
2023-03-30T22:59:31.655Z,100353.03
2023-03-30T23:01:59.426Z,100352.31
2023-03-30T23:04:29.007Z,100348.06
2023-03-30T23:06:56.805Z,100340.91
2023-03-30T23:09:24.537Z,100341.94
2023-03-30T23:11:53.632Z,100340.25
2023-03-30T23:14:21.805Z,100342.25
2023-03-30T23:16:52.005Z,100341.53
2023-03-30T23:19:19.874Z,100324.88
2023-03-30T23:21:50.303Z,100325.72
2023-03-30T23:24:18.057Z,100325.72
2023-03-30T23:26:46.225Z,100313.00
2023-03-30T23:29:14.050Z,100308.56
2023-03-30T23:31:41.769Z,100299.19
2023-03-30T23:34:12.940Z,100298.34
2023-03-30T23:36:40.771Z,100292.03
2023-03-30T23:39:10.275Z,100285.06
2023-03-30T23:41:37.982Z,100281.50
2023-03-30T23:44:06.116Z,100280.66
2023-03-30T23:46:34.270Z,100275.34
2023-03-30T23:49:03.300Z,100264.63
2023-03-30T23:51:31.063Z,100271.66
2023-03-30T23:54:06.113Z,100257.50
2023-03-30T23:56:36.028Z,100254.06
2023-03-30T23:59:04.513Z,100246.63
